Gillette, WY

6:04 PM MDT on September 17, 2014 (GMT -0600)
Johnson County | Change Station
CLOSE
Current Station
Airport
Location: Buffalo,
Elevation: 4967 ft
Nearby Weather Stations

Elev 4967 ft 44.38 °N, 106.72 °W | Updated 11 minutes ago

Clear
Clear
77 °F
Feels Like 77 °F
N
5
Wind Variable Wind from NNW

Today
High -- | Low -- °F
--% Chance of Precip.
Yesterday
High -- | Low -- °F
Precip. -- in
6:44 AM 7:09 PM
Waning Crescent, 32% visible
Pressure 29.81 in
Visibility 10.0 miles
Clouds Clear
Dew Point 44 °F
Humidity 31%
Rainfall 0.00 in
Snow Depth 0 in , 0 in , 0 in
UV 1 out of 12
Pollen 5.80 out of 12
Air Quality Not available.
Flu Activity Not available.
METAR KBYG 172353Z AUTO 33004KT 10SM -RA CLR 25/07 A2998 RMK AO2 RAB15 SLP093 P0000 60000 T02500067 10283 20244 56003

More Conditions Fewer Conditions

Pressure 29.81 in
Visibility 10.0 miles
Clouds Clear
Dew Point 44 °F
Humidity 31%
Rainfall 0.00 in
Snow Depth 0 in , 0 in , 0 in
UV 1 out of 12
Pollen 5.80 out of 12
Air Quality Not available.
Flu Activity Not available.
METAR KBYG 172353Z AUTO 33004KT 10SM -RA CLR 25/07 A2998 RMK AO2 RAB15 SLP093 P0000 60000 T02500067 10283 20244 56003

More Conditions Fewer Conditions

10-Day Weather Forecast

Almanac

Astronomy

Sep. 17, 2014 Rise Set
Actual Time 6:44 AM MDT 7:09 PM MDT
Civil Twilight 6:14 AM MDT 7:38 PM MDT
Nautical Twilight 5:40 AM MDT 8:13 PM MDT
Astronomical Twilight 5:04 AM MDT 8:48 PM MDT
Moon 12:36 AM MDT (9/17) 3:30 PM MDT (9/17)
Length of Visible Light 13h 23m
Length of Day
12h 25m
Tomorrow will be 3m 4s shorter.
Waning Crescent, 32% of the Moon is Illuminated
Today
Waning Crescent
Sep 24
New
Oct 1
First Quarter
Oct 8
Full
Oct 15
Last Quarter

Today's Extremes

State Highs State Lows

Community

WunderPhotos

Upload Photos

1,754,200 photos uploaded!

Nearby

Snow Depth

Station Depth Elevation
Phillips Bench 0 in 8200 ft
Salt River Summit 0 in 7600 ft
Loomis Park 0 in 8240 ft
Kendall R.S. 0 in 7740 ft
Kelley R.S. 0 in 8180 ft

Earthquake Activity

City Distance Mag. Time & Date
No recent earthquake activity has been reported nearby.
Minimum magnitude displayed is 2.5.

Coastal Water Temperatures

Place Temperature
No Stations Reporting

Nearby Weather Stations